KMXF

Maxwell Air Force Base

Airport
ICAO code
KMXF
Summary
ICAO Region
NAM
ICAO Territory
Location

Montgomery, Alabama,

Coordinates
32° 22' 45" N , 86° 21' 45" W
KCC
Metar
Observation
KMXF 061555Z AUTO 00000KT 10SM CLR 14/05 A3025 RMK AO2 SLP247 T01380052
Station
Maxwell Air Force Base / Montgomery
Date/Time
2023-02-06 16:55:00
Wind direction
Wind speed
00 kts
Lowest cloud amount
n/a
Temperature
13.8°C
Dew point
5.2°C
Humidity
56%
Weather condition
n/a

Description

Maxwell Air Force Base, officially known as Maxwell-Gunter Air Force Base, is a United States Air Force (USAF) installation located in Montgomery, Alabama,.

Climatology

Humid “subtropical” climate (Köppen climate classification Cfa) - characterized by hot, humid summers and cool winters. Significant amounts of precipitation occur in all seasons in most areas. Winter rainfall (and sometimes snowfall) is associated with large storms that the westerlies steer from west to east. Most summer rainfall occurs during thunderstorms and occasional tropical storms (hurricanes).

Runways

Designator Length Width Surface Rops
7/187 919 18 ASPH No/No
15/33 2442 46 ASP Yes/Yes

Airport map

Aerial View

SKYbrary Partners:

Safety knowledge contributed by: